BAW23Z EGLL-LOWI
Flight info
| Callsign | BAW23Z |
|---|---|
| Flight time | 1h 27m |
| Altitude | 37000 |
| Route | DET L6 DVR UL9 KONAN UL607 MATUG DCT BOMBI T104 WLD M867 BAVAX Z106 MANAL M736 TULSI TULSI3A |
| Aircraft | A20N/M-SDE2E3FGHIRWXY/LB1 |
Departure
| Time | 2026-05-06 19:06 |
|---|---|
| Airport | London Heathrow Airport (EGLL) |
Arrival
| Time | 2026-05-06 20:33 |
|---|---|
| Airport | Innsbruck Airport (LOWI) |
| Time | Latitude | Longitude | Altitude | Speed | Heading |
|---|---|---|---|---|---|
| 2026-05-06 18:40 | 51.47315 | -0.48577 | 89 ft | 0 kts | 268° |
| 2026-05-06 19:00 | 51.47316 | -0.48555 | 91 ft | 3 kts | 264° |
| 2026-05-06 19:00 | 51.47319 | -0.48524 | 88 ft | 3 kts | 251° |
| 2026-05-06 19:00 | 51.47327 | -0.48495 | 92 ft | 3 kts | 229° |
| 2026-05-06 19:00 | 51.47336 | -0.48481 | 82 ft | 3 kts | 204° |
| 2026-05-06 19:01 | 51.47347 | -0.48476 | 69 ft | 1 kts | 178° |
| 2026-05-06 19:04 | 51.47316 | -0.48474 | 73 ft | 10 kts | 178° |
| 2026-05-06 19:04 | 51.47192 | -0.48471 | 94 ft | 24 kts | 181° |
| 2026-05-06 19:04 | 51.47005 | -0.48467 | 91 ft | 27 kts | 178° |
| 2026-05-06 19:04 | 51.46820 | -0.48461 | 91 ft | 22 kts | 180° |
| 2026-05-06 19:05 | 51.46682 | -0.48466 | 91 ft | 17 kts | 179° |
| 2026-05-06 19:05 | 51.46597 | -0.48468 | 92 ft | 10 kts | 181° |
| 2026-05-06 19:05 | 51.46511 | -0.48466 | 91 ft | 18 kts | 169° |
| 2026-05-06 19:05 | 51.46481 | -0.48257 | 90 ft | 34 kts | 89° |
| 2026-05-06 19:06 | 51.46483 | -0.47505 | 87 ft | 101 kts | 89° |
| 2026-05-06 19:06 | 51.46485 | -0.46007 | 92 ft | 164 kts | 89° |
| 2026-05-06 19:06 | 51.46502 | -0.44091 | 492 ft | 179 kts | 87° |
| 2026-05-06 19:06 | 51.46499 | -0.42091 | 1346 ft | 183 kts | 96° |
| 2026-05-06 19:07 | 51.45976 | -0.40081 | 1826 ft | 210 kts | 120° |
| 2026-05-06 19:07 | 51.45402 | -0.38739 | 2048 ft | 229 kts | 122° |
| 2026-05-06 19:07 | 51.44428 | -0.35504 | 2619 ft | 253 kts | 108° |
| 2026-05-06 19:07 | 51.43856 | -0.32789 | 3340 ft | 259 kts | 105° |
| 2026-05-06 19:08 | 51.43313 | -0.30034 | 4121 ft | 262 kts | 105° |
| 2026-05-06 19:08 | 51.42843 | -0.27187 | 4886 ft | 266 kts | 102° |
| 2026-05-06 19:08 | 51.42425 | -0.24250 | 5588 ft | 274 kts | 102° |
| 2026-05-06 19:08 | 51.42003 | -0.21189 | 5947 ft | 296 kts | 102° |
| 2026-05-06 19:09 | 51.41552 | -0.17908 | 5984 ft | 296 kts | 102° |
| 2026-05-06 19:09 | 51.41124 | -0.14815 | 5997 ft | 277 kts | 102° |
| 2026-05-06 19:09 | 51.40708 | -0.11850 | 5998 ft | 269 kts | 102° |
| 2026-05-06 19:09 | 51.40295 | -0.08918 | 5996 ft | 270 kts | 102° |
| 2026-05-06 19:10 | 51.39879 | -0.05969 | 5992 ft | 270 kts | 102° |
| 2026-05-06 19:10 | 51.39604 | -0.04023 | 5991 ft | 270 kts | 102° |
| 2026-05-06 19:10 | 51.39050 | -0.00108 | 5991 ft | 270 kts | 103° |
| 2026-05-06 19:10 | 51.38774 | 0.01841 | 5993 ft | 270 kts | 103° |
| 2026-05-06 19:11 | 51.38142 | 0.05703 | 6006 ft | 271 kts | 112° |
| 2026-05-06 19:11 | 51.37577 | 0.07544 | 6232 ft | 273 kts | 119° |
| 2026-05-06 19:11 | 51.36626 | 0.10148 | 7004 ft | 274 kts | 121° |
| 2026-05-06 19:11 | 51.35632 | 0.12785 | 7821 ft | 279 kts | 121° |
| 2026-05-06 19:12 | 51.34609 | 0.15489 | 8609 ft | 286 kts | 121° |
| 2026-05-06 19:12 | 51.33564 | 0.18251 | 9364 ft | 293 kts | 121° |
| 2026-05-06 19:12 | 51.32508 | 0.21044 | 9858 ft | 304 kts | 121° |
| 2026-05-06 19:12 | 51.31363 | 0.24075 | 9979 ft | 332 kts | 121° |
| 2026-05-06 19:13 | 51.30143 | 0.27303 | 9988 ft | 342 kts | 121° |
| 2026-05-06 19:13 | 51.28907 | 0.30571 | 9969 ft | 343 kts | 121° |
| 2026-05-06 19:13 | 51.27678 | 0.33816 | 9966 ft | 343 kts | 121° |
| 2026-05-06 19:13 | 51.26437 | 0.37087 | 9966 ft | 343 kts | 121° |
| 2026-05-06 19:14 | 51.25198 | 0.40354 | 9966 ft | 343 kts | 121° |
| 2026-05-06 19:14 | 51.23971 | 0.43586 | 10063 ft | 346 kts | 121° |
| 2026-05-06 19:14 | 51.22713 | 0.46893 | 10729 ft | 348 kts | 121° |
| 2026-05-06 19:14 | 51.21452 | 0.50205 | 11609 ft | 350 kts | 121° |
| 2026-05-06 19:15 | 51.20190 | 0.53519 | 12446 ft | 353 kts | 121° |
| 2026-05-06 19:15 | 51.18903 | 0.56897 | 13277 ft | 357 kts | 121° |
| 2026-05-06 19:15 | 51.17601 | 0.60317 | 14066 ft | 361 kts | 121° |
| 2026-05-06 19:15 | 51.16292 | 0.63765 | 14776 ft | 365 kts | 121° |
| 2026-05-06 19:16 | 51.15124 | 0.67329 | 15472 ft | 369 kts | 111° |
| 2026-05-06 19:16 | 51.14361 | 0.71276 | 16181 ft | 373 kts | 104° |
| 2026-05-06 19:16 | 51.13792 | 0.75279 | 16878 ft | 376 kts | 101° |
| 2026-05-06 19:16 | 51.13322 | 0.79420 | 17559 ft | 381 kts | 99° |
| 2026-05-06 19:17 | 51.12944 | 0.83602 | 18212 ft | 385 kts | 93° |
| 2026-05-06 19:17 | 51.13147 | 0.87863 | 18764 ft | 388 kts | 76° |
| 2026-05-06 19:17 | 51.13881 | 0.91971 | 19345 ft | 390 kts | 72° |
| 2026-05-06 19:17 | 51.14725 | 0.96137 | 19919 ft | 394 kts | 71° |
| 2026-05-06 19:18 | 51.15580 | 1.00319 | 20494 ft | 398 kts | 71° |
| 2026-05-06 19:18 | 51.16433 | 1.04482 | 21070 ft | 401 kts | 71° |
| 2026-05-06 19:18 | 51.17309 | 1.08753 | 21625 ft | 405 kts | 71° |
| 2026-05-06 19:18 | 51.18183 | 1.13007 | 22187 ft | 408 kts | 71° |
| 2026-05-06 19:19 | 51.18924 | 1.17406 | 22698 ft | 411 kts | 80° |
| 2026-05-06 19:19 | 51.19119 | 1.21940 | 23208 ft | 415 kts | 93° |
| 2026-05-06 19:19 | 51.18877 | 1.26556 | 23697 ft | 418 kts | 97° |
| 2026-05-06 19:19 | 51.18468 | 1.31164 | 24116 ft | 420 kts | 99° |
| 2026-05-06 19:20 | 51.17953 | 1.35788 | 24542 ft | 423 kts | 101° |
| 2026-05-06 19:20 | 51.17398 | 1.40352 | 24952 ft | 425 kts | 101° |
| 2026-05-06 19:20 | 51.16820 | 1.44992 | 25362 ft | 427 kts | 101° |
| 2026-05-06 19:20 | 51.16240 | 1.49678 | 25757 ft | 429 kts | 101° |
| 2026-05-06 19:21 | 51.15675 | 1.54309 | 26153 ft | 432 kts | 101° |
| 2026-05-06 19:21 | 51.15108 | 1.59024 | 26516 ft | 434 kts | 101° |
| 2026-05-06 19:21 | 51.14540 | 1.63789 | 26884 ft | 437 kts | 101° |
| 2026-05-06 19:21 | 51.13979 | 1.68514 | 27250 ft | 439 kts | 101° |
| 2026-05-06 19:22 | 51.13408 | 1.73326 | 27610 ft | 441 kts | 101° |
| 2026-05-06 19:22 | 51.12835 | 1.78135 | 27962 ft | 443 kts | 101° |
| 2026-05-06 19:22 | 51.12262 | 1.82928 | 28304 ft | 445 kts | 101° |
| 2026-05-06 19:22 | 51.11676 | 1.87813 | 28642 ft | 447 kts | 101° |
| 2026-05-06 19:23 | 51.11085 | 1.92708 | 28972 ft | 450 kts | 101° |
| 2026-05-06 19:23 | 51.10499 | 1.97544 | 29293 ft | 451 kts | 101° |
| 2026-05-06 19:23 | 51.09897 | 2.02491 | 29612 ft | 453 kts | 101° |
| 2026-05-06 19:23 | 51.09297 | 2.07405 | 29918 ft | 456 kts | 102° |
| 2026-05-06 19:24 | 51.08689 | 2.12369 | 30187 ft | 458 kts | 102° |
| 2026-05-06 19:24 | 51.08076 | 2.17350 | 30457 ft | 459 kts | 102° |
| 2026-05-06 19:24 | 51.07458 | 2.22357 | 30814 ft | 458 kts | 102° |
| 2026-05-06 19:24 | 51.06851 | 2.27255 | 31170 ft | 456 kts | 101° |
| 2026-05-06 19:25 | 51.06235 | 2.32210 | 31516 ft | 456 kts | 101° |
| 2026-05-06 19:25 | 51.05617 | 2.37164 | 31832 ft | 455 kts | 101° |
| 2026-05-06 19:25 | 51.05002 | 2.42068 | 32153 ft | 454 kts | 101° |
| 2026-05-06 19:25 | 51.04380 | 2.47015 | 32480 ft | 454 kts | 101° |
| 2026-05-06 19:26 | 51.03765 | 2.51885 | 32797 ft | 453 kts | 101° |
| 2026-05-06 19:26 | 51.03143 | 2.56796 | 33092 ft | 452 kts | 101° |
| 2026-05-06 19:26 | 51.02522 | 2.61681 | 33372 ft | 452 kts | 101° |
| 2026-05-06 19:26 | 51.01898 | 2.66575 | 33670 ft | 451 kts | 101° |
| 2026-05-06 19:27 | 51.01269 | 2.71487 | 33962 ft | 450 kts | 101° |
| 2026-05-06 19:27 | 51.00642 | 2.76368 | 34199 ft | 450 kts | 101° |
| 2026-05-06 19:27 | 51.00022 | 2.81182 | 34397 ft | 450 kts | 101° |
| 2026-05-06 19:27 | 50.99388 | 2.86084 | 34591 ft | 450 kts | 102° |
| 2026-05-06 19:28 | 50.98760 | 2.90916 | 34779 ft | 451 kts | 102° |
| 2026-05-06 19:28 | 50.98123 | 2.95804 | 34961 ft | 451 kts | 102° |
| 2026-05-06 19:28 | 50.97483 | 3.00700 | 35149 ft | 451 kts | 102° |
| 2026-05-06 19:28 | 50.96843 | 3.05578 | 35331 ft | 451 kts | 102° |
| 2026-05-06 19:29 | 50.96209 | 3.10399 | 35496 ft | 452 kts | 102° |
| 2026-05-06 19:29 | 50.95563 | 3.15291 | 35671 ft | 452 kts | 102° |
| 2026-05-06 19:29 | 50.94914 | 3.20186 | 35820 ft | 452 kts | 102° |
| 2026-05-06 19:29 | 50.94271 | 3.25022 | 36003 ft | 452 kts | 102° |
| 2026-05-06 19:30 | 50.93617 | 3.29923 | 36171 ft | 452 kts | 102° |
| 2026-05-06 19:30 | 50.92963 | 3.34810 | 36335 ft | 452 kts | 102° |
| 2026-05-06 19:30 | 50.92308 | 3.39684 | 36490 ft | 452 kts | 102° |
| 2026-05-06 19:30 | 50.91653 | 3.44543 | 36643 ft | 453 kts | 103° |
| 2026-05-06 19:31 | 50.90992 | 3.49430 | 36786 ft | 453 kts | 103° |
| 2026-05-06 19:31 | 50.88991 | 3.64127 | 36927 ft | 461 kts | 103° |
| 2026-05-06 19:32 | 50.87614 | 3.74156 | 36928 ft | 468 kts | 103° |
| 2026-05-06 19:32 | 50.86214 | 3.84277 | 36928 ft | 472 kts | 103° |
| 2026-05-06 19:33 | 50.84811 | 3.94366 | 36931 ft | 471 kts | 103° |
| 2026-05-06 19:33 | 50.83390 | 4.04506 | 36935 ft | 470 kts | 103° |
| 2026-05-06 19:34 | 50.81968 | 4.14586 | 36934 ft | 471 kts | 103° |
| 2026-05-06 19:34 | 50.80528 | 4.24723 | 36935 ft | 471 kts | 103° |
| 2026-05-06 19:35 | 50.79089 | 4.34782 | 36937 ft | 471 kts | 103° |
| 2026-05-06 19:35 | 50.77643 | 4.44830 | 36938 ft | 471 kts | 104° |
| 2026-05-06 19:36 | 50.76184 | 4.54895 | 36941 ft | 471 kts | 104° |
| 2026-05-06 19:36 | 50.74709 | 4.65013 | 36936 ft | 471 kts | 104° |
| 2026-05-06 19:37 | 50.73233 | 4.75063 | 36933 ft | 471 kts | 104° |
| 2026-05-06 19:37 | 50.71990 | 4.83479 | 36928 ft | 471 kts | 104° |
| 2026-05-06 19:38 | 50.70249 | 4.95190 | 36927 ft | 471 kts | 104° |
| 2026-05-06 19:38 | 50.68743 | 5.05254 | 36928 ft | 471 kts | 104° |
| 2026-05-06 19:39 | 50.67232 | 5.15283 | 36930 ft | 470 kts | 104° |
| 2026-05-06 19:39 | 50.65707 | 5.25342 | 36934 ft | 471 kts | 104° |
| 2026-05-06 19:40 | 50.64187 | 5.35305 | 36937 ft | 470 kts | 105° |
| 2026-05-06 19:40 | 50.62646 | 5.45349 | 36938 ft | 470 kts | 105° |
| 2026-05-06 19:41 | 50.61105 | 5.55321 | 36938 ft | 470 kts | 105° |
| 2026-05-06 19:41 | 50.59553 | 5.65312 | 36934 ft | 470 kts | 105° |
| 2026-05-06 19:42 | 50.57992 | 5.75289 | 36923 ft | 470 kts | 105° |
| 2026-05-06 19:42 | 50.56418 | 5.85298 | 36914 ft | 470 kts | 105° |
| 2026-05-06 19:43 | 50.54833 | 5.95308 | 36902 ft | 470 kts | 105° |
| 2026-05-06 19:43 | 50.53250 | 6.05247 | 36895 ft | 470 kts | 105° |
| 2026-05-06 19:44 | 50.51657 | 6.15191 | 36885 ft | 470 kts | 105° |
| 2026-05-06 19:44 | 50.50055 | 6.25131 | 36878 ft | 470 kts | 105° |
| 2026-05-06 19:45 | 50.48436 | 6.35119 | 36874 ft | 470 kts | 106° |
| 2026-05-06 19:45 | 50.46818 | 6.45039 | 36872 ft | 470 kts | 106° |
| 2026-05-06 19:46 | 50.45184 | 6.54999 | 36874 ft | 470 kts | 106° |
| 2026-05-06 19:46 | 50.43550 | 6.64898 | 36870 ft | 470 kts | 106° |
| 2026-05-06 19:47 | 50.41902 | 6.74829 | 36869 ft | 470 kts | 106° |
| 2026-05-06 19:47 | 50.40241 | 6.84777 | 36866 ft | 470 kts | 106° |
| 2026-05-06 19:48 | 50.38582 | 6.94657 | 36864 ft | 470 kts | 107° |
| 2026-05-06 19:48 | 50.36916 | 7.04522 | 36859 ft | 470 kts | 107° |
| 2026-05-06 19:49 | 50.35230 | 7.14449 | 36859 ft | 470 kts | 107° |
| 2026-05-06 19:49 | 50.33549 | 7.24287 | 36860 ft | 470 kts | 107° |
| 2026-05-06 19:50 | 50.31847 | 7.34195 | 36858 ft | 470 kts | 107° |
| 2026-05-06 19:50 | 50.30149 | 7.44019 | 36860 ft | 470 kts | 107° |
| 2026-05-06 19:51 | 50.28428 | 7.53926 | 36862 ft | 470 kts | 107° |
| 2026-05-06 19:51 | 50.26717 | 7.63719 | 36857 ft | 470 kts | 108° |
| 2026-05-06 19:52 | 50.24977 | 7.73627 | 36853 ft | 470 kts | 108° |
| 2026-05-06 19:52 | 50.23245 | 7.83428 | 36851 ft | 470 kts | 108° |
| 2026-05-06 19:53 | 50.21505 | 7.93227 | 36844 ft | 470 kts | 108° |
| 2026-05-06 19:53 | 50.19753 | 8.03035 | 36848 ft | 470 kts | 108° |
| 2026-05-06 19:54 | 50.18284 | 8.11218 | 36843 ft | 470 kts | 108° |
| 2026-05-06 19:54 | 50.16505 | 8.21083 | 36841 ft | 470 kts | 108° |
| 2026-05-06 19:55 | 50.14733 | 8.30853 | 36843 ft | 470 kts | 108° |
| 2026-05-06 19:55 | 50.12950 | 8.40630 | 36843 ft | 469 kts | 109° |
| 2026-05-06 19:56 | 50.11152 | 8.50440 | 36854 ft | 469 kts | 109° |
| 2026-05-06 19:56 | 50.09355 | 8.60189 | 36854 ft | 469 kts | 109° |
| 2026-05-06 19:57 | 50.07553 | 8.69919 | 36857 ft | 469 kts | 109° |
| 2026-05-06 19:57 | 50.05043 | 8.79215 | 36850 ft | 461 kts | 125° |
| 2026-05-06 19:58 | 50.00988 | 8.86735 | 36846 ft | 454 kts | 139° |
| 2026-05-06 19:58 | 49.96345 | 8.93449 | 36839 ft | 453 kts | 141° |
| 2026-05-06 19:59 | 49.91643 | 8.99947 | 36834 ft | 453 kts | 141° |
| 2026-05-06 19:59 | 49.86954 | 9.06449 | 36824 ft | 453 kts | 141° |
| 2026-05-06 20:00 | 49.82296 | 9.12955 | 36818 ft | 452 kts | 141° |
| 2026-05-06 20:00 | 49.77619 | 9.19496 | 36812 ft | 452 kts | 141° |
| 2026-05-06 20:01 | 49.72934 | 9.26031 | 36822 ft | 452 kts | 141° |
| 2026-05-06 20:01 | 49.68274 | 9.32513 | 36821 ft | 452 kts | 141° |
| 2026-05-06 20:02 | 49.63602 | 9.38992 | 36808 ft | 452 kts | 141° |
| 2026-05-06 20:02 | 49.59216 | 9.46043 | 36816 ft | 455 kts | 135° |
| 2026-05-06 20:03 | 49.55014 | 9.53348 | 36811 ft | 455 kts | 135° |
| 2026-05-06 20:03 | 49.50864 | 9.60655 | 36822 ft | 455 kts | 135° |
| 2026-05-06 20:04 | 49.46683 | 9.67988 | 36824 ft | 455 kts | 135° |
| 2026-05-06 20:04 | 49.42503 | 9.75277 | 36824 ft | 455 kts | 135° |
| 2026-05-06 20:05 | 49.38310 | 9.82558 | 36829 ft | 455 kts | 135° |
| 2026-05-06 20:05 | 49.34089 | 9.89853 | 36828 ft | 455 kts | 135° |
| 2026-05-06 20:06 | 49.29889 | 9.97087 | 36829 ft | 455 kts | 135° |
| 2026-05-06 20:06 | 49.25701 | 10.04282 | 36828 ft | 454 kts | 136° |
| 2026-05-06 20:07 | 49.21478 | 10.11517 | 36833 ft | 454 kts | 136° |
| 2026-05-06 20:07 | 49.17293 | 10.18673 | 36843 ft | 453 kts | 136° |
| 2026-05-06 20:08 | 49.13054 | 10.25846 | 36858 ft | 453 kts | 137° |
| 2026-05-06 20:08 | 49.08745 | 10.32822 | 36871 ft | 452 kts | 138° |
| 2026-05-06 20:09 | 49.04420 | 10.39724 | 36871 ft | 452 kts | 138° |
| 2026-05-06 20:09 | 49.00062 | 10.46676 | 36880 ft | 452 kts | 138° |
| 2026-05-06 20:10 | 48.95740 | 10.53562 | 36880 ft | 452 kts | 138° |
| 2026-05-06 20:10 | 48.91395 | 10.60473 | 36883 ft | 452 kts | 138° |
| 2026-05-06 20:11 | 48.87043 | 10.67383 | 36882 ft | 452 kts | 138° |
| 2026-05-06 20:11 | 48.82668 | 10.74311 | 36883 ft | 452 kts | 138° |
| 2026-05-06 20:12 | 48.78332 | 10.81148 | 36876 ft | 452 kts | 138° |
| 2026-05-06 20:12 | 48.73963 | 10.87998 | 36868 ft | 451 kts | 139° |
| 2026-05-06 20:13 | 48.69582 | 10.94846 | 36859 ft | 451 kts | 139° |
| 2026-05-06 20:13 | 48.65222 | 11.01637 | 36855 ft | 450 kts | 139° |
| 2026-05-06 20:14 | 48.60877 | 11.08385 | 36856 ft | 450 kts | 139° |
| 2026-05-06 20:14 | 48.56544 | 11.15244 | 36853 ft | 451 kts | 137° |
| 2026-05-06 20:15 | 48.52428 | 11.22346 | 36864 ft | 451 kts | 135° |
| 2026-05-06 20:15 | 48.48332 | 11.29559 | 36862 ft | 451 kts | 135° |
| 2026-05-06 20:16 | 48.44248 | 11.36686 | 36867 ft | 451 kts | 136° |
| 2026-05-06 20:16 | 48.42196 | 11.40240 | 36597 ft | 448 kts | 136° |
| 2026-05-06 20:16 | 48.40138 | 11.43794 | 35910 ft | 449 kts | 136° |
| 2026-05-06 20:17 | 48.38072 | 11.47348 | 35146 ft | 452 kts | 136° |
| 2026-05-06 20:17 | 48.36009 | 11.50887 | 34418 ft | 454 kts | 136° |
| 2026-05-06 20:17 | 48.33933 | 11.54448 | 33690 ft | 456 kts | 136° |
| 2026-05-06 20:17 | 48.31833 | 11.58044 | 32852 ft | 457 kts | 136° |
| 2026-05-06 20:18 | 48.29699 | 11.61599 | 32001 ft | 457 kts | 140° |
| 2026-05-06 20:18 | 48.27301 | 11.64754 | 31105 ft | 454 kts | 148° |
| 2026-05-06 20:18 | 48.24673 | 11.67231 | 30246 ft | 450 kts | 158° |
| 2026-05-06 20:18 | 48.21788 | 11.68979 | 29411 ft | 444 kts | 167° |
| 2026-05-06 20:19 | 48.18817 | 11.70233 | 28764 ft | 437 kts | 169° |
| 2026-05-06 20:19 | 48.15904 | 11.71298 | 28123 ft | 432 kts | 171° |
| 2026-05-06 20:19 | 48.12972 | 11.72286 | 27476 ft | 428 kts | 171° |
| 2026-05-06 20:19 | 48.10075 | 11.73232 | 26844 ft | 424 kts | 171° |
| 2026-05-06 20:20 | 48.07192 | 11.74172 | 26132 ft | 422 kts | 171° |
| 2026-05-06 20:20 | 48.04333 | 11.75112 | 25110 ft | 429 kts | 170° |
| 2026-05-06 20:20 | 48.01394 | 11.76091 | 24291 ft | 431 kts | 169° |
| 2026-05-06 20:20 | 47.98470 | 11.77078 | 23614 ft | 428 kts | 169° |
| 2026-05-06 20:21 | 47.95573 | 11.78064 | 22898 ft | 424 kts | 169° |
| 2026-05-06 20:21 | 47.92741 | 11.79031 | 22211 ft | 420 kts | 169° |
| 2026-05-06 20:21 | 47.89867 | 11.79661 | 21512 ft | 412 kts | 179° |
| 2026-05-06 20:21 | 47.87009 | 11.79725 | 20832 ft | 407 kts | 182° |
| 2026-05-06 20:22 | 47.84224 | 11.79633 | 20179 ft | 402 kts | 183° |
| 2026-05-06 20:22 | 47.81435 | 11.79497 | 19521 ft | 398 kts | 184° |
| 2026-05-06 20:22 | 47.78676 | 11.79350 | 18825 ft | 394 kts | 184° |
| 2026-05-06 20:22 | 47.75932 | 11.79199 | 18149 ft | 391 kts | 184° |
| 2026-05-06 20:23 | 47.73257 | 11.79052 | 17368 ft | 385 kts | 184° |
| 2026-05-06 20:23 | 47.70590 | 11.79175 | 16269 ft | 382 kts | 175° |
| 2026-05-06 20:23 | 47.67981 | 11.80091 | 15140 ft | 382 kts | 165° |
| 2026-05-06 20:23 | 47.65508 | 11.81407 | 14008 ft | 379 kts | 162° |
| 2026-05-06 20:24 | 47.63049 | 11.82769 | 12854 ft | 373 kts | 165° |
| 2026-05-06 20:24 | 47.60573 | 11.83609 | 12037 ft | 359 kts | 175° |
| 2026-05-06 20:24 | 47.58161 | 11.83967 | 11687 ft | 336 kts | 178° |
| 2026-05-06 20:24 | 47.55921 | 11.84184 | 11383 ft | 316 kts | 179° |
| 2026-05-06 20:25 | 47.53790 | 11.84353 | 11119 ft | 297 kts | 179° |
| 2026-05-06 20:25 | 47.51781 | 11.84491 | 10825 ft | 282 kts | 180° |
| 2026-05-06 20:25 | 47.49837 | 11.84614 | 10312 ft | 276 kts | 179° |
| 2026-05-06 20:25 | 47.47941 | 11.84728 | 9790 ft | 273 kts | 179° |
| 2026-05-06 20:26 | 47.46044 | 11.84839 | 9515 ft | 269 kts | 179° |
| 2026-05-06 20:26 | 47.44184 | 11.84949 | 9494 ft | 265 kts | 179° |
| 2026-05-06 20:26 | 47.42360 | 11.85056 | 9480 ft | 263 kts | 179° |
| 2026-05-06 20:26 | 47.40528 | 11.85163 | 9474 ft | 263 kts | 180° |
| 2026-05-06 20:27 | 47.38688 | 11.85269 | 9481 ft | 264 kts | 179° |
| 2026-05-06 20:27 | 47.36846 | 11.85357 | 9477 ft | 264 kts | 182° |
| 2026-05-06 20:27 | 47.35061 | 11.84990 | 9475 ft | 262 kts | 201° |
| 2026-05-06 20:27 | 47.33594 | 11.83460 | 9481 ft | 261 kts | 233° |
| 2026-05-06 20:28 | 47.32849 | 11.81023 | 9489 ft | 265 kts | 253° |
| 2026-05-06 20:28 | 47.32466 | 11.78344 | 9375 ft | 264 kts | 257° |
| 2026-05-06 20:28 | 47.32131 | 11.75743 | 9023 ft | 259 kts | 256° |
| 2026-05-06 20:28 | 47.31757 | 11.73146 | 8595 ft | 259 kts | 255° |
| 2026-05-06 20:29 | 47.31356 | 11.70531 | 8072 ft | 261 kts | 255° |
| 2026-05-06 20:29 | 47.30956 | 11.67947 | 7499 ft | 261 kts | 255° |
| 2026-05-06 20:29 | 47.30564 | 11.65335 | 6946 ft | 259 kts | 256° |
| 2026-05-06 20:29 | 47.30183 | 11.62786 | 6494 ft | 254 kts | 256° |
| 2026-05-06 20:30 | 47.29801 | 11.60252 | 6083 ft | 249 kts | 256° |
| 2026-05-06 20:30 | 47.29073 | 11.55417 | 5302 ft | 233 kts | 256° |
| 2026-05-06 20:30 | 47.28731 | 11.53141 | 4913 ft | 227 kts | 255° |
| 2026-05-06 20:31 | 47.28392 | 11.50895 | 4541 ft | 220 kts | 255° |
| 2026-05-06 20:31 | 47.28066 | 11.48733 | 4203 ft | 212 kts | 256° |
| 2026-05-06 20:31 | 47.27759 | 11.46689 | 3849 ft | 199 kts | 257° |
| 2026-05-06 20:31 | 47.27468 | 11.44761 | 3540 ft | 185 kts | 257° |
| 2026-05-06 20:32 | 47.27199 | 11.42976 | 3253 ft | 172 kts | 257° |
| 2026-05-06 20:32 | 47.26949 | 11.41312 | 2950 ft | 161 kts | 257° |
| 2026-05-06 20:32 | 47.26712 | 11.39748 | 2652 ft | 150 kts | 257° |
| 2026-05-06 20:32 | 47.26483 | 11.38311 | 2337 ft | 139 kts | 255° |
| 2026-05-06 20:33 | 47.26295 | 11.36971 | 2108 ft | 128 kts | 263° |
| 2026-05-06 20:33 | 47.26158 | 11.35687 | 1952 ft | 126 kts | 261° |
| 2026-05-06 20:33 | 47.26032 | 11.34465 | 1907 ft | 109 kts | 262° |
| 2026-05-06 20:33 | 47.25968 | 11.33876 | 1918 ft | 24 kts | 258° |
| 2026-05-06 20:34 | 47.25934 | 11.33707 | 1919 ft | 4 kts | 219° |
| 2026-05-06 20:34 | 47.25923 | 11.33701 | 1919 ft | 0 kts | 182° |
| 2026-05-06 20:34 | 47.25898 | 11.33726 | 1920 ft | 9 kts | 134° |
| 2026-05-06 20:34 | 47.25854 | 11.33796 | 1919 ft | 10 kts | 127° |
| 2026-05-06 20:35 | 47.25809 | 11.33884 | 1908 ft | 12 kts | 126° |
| 2026-05-06 20:35 | 47.25780 | 11.34010 | 1897 ft | 15 kts | 93° |
| 2026-05-06 20:35 | 47.25782 | 11.34180 | 1895 ft | 16 kts | 83° |
| 2026-05-06 20:35 | 47.25800 | 11.34319 | 1904 ft | 12 kts | 81° |
| 2026-05-06 20:36 | 47.25809 | 11.34407 | 1891 ft | 7 kts | 81° |
| 2026-05-06 20:36 | 47.25816 | 11.34471 | 1904 ft | 6 kts | 81° |
| 2026-05-06 20:36 | 47.25822 | 11.34531 | 1893 ft | 6 kts | 81° |
| 2026-05-06 20:36 | 47.25830 | 11.34603 | 1904 ft | 9 kts | 81° |
| 2026-05-06 20:37 | 47.25837 | 11.34672 | 1897 ft | 5 kts | 82° |
| 2026-05-06 20:37 | 47.25840 | 11.34702 | 1900 ft | 1 kts | 82° |
| 2026-05-06 20:37 | 47.25840 | 11.34707 | 1904 ft | 0 kts | 82° |
| 2026-05-06 20:37 | 47.25842 | 11.34727 | 1892 ft | 6 kts | 82° |
| 2026-05-06 20:38 | 47.25849 | 11.34794 | 1897 ft | 5 kts | 83° |
| 2026-05-06 20:38 | 47.25842 | 11.34839 | 1904 ft | 4 kts | 112° |
| 2026-05-06 20:38 | 47.25826 | 11.34867 | 1898 ft | 3 kts | 153° |
| 2026-05-06 20:38 | 47.25819 | 11.34869 | 1898 ft | 0 kts | 172° |
| 2026-05-06 20:39 | 47.25814 | 11.34869 | 1897 ft | 1 kts | 172° |
| 2026-05-06 20:39 | 47.25812 | 11.34870 | 1896 ft | 1 kts | 172° |
| 2026-05-06 20:39 | 47.25803 | 11.34872 | 1892 ft | 0 kts | 172° |